sensor_id;sensor_type;location;lat;lon;timestamp;P1;durP1;ratioP1;P2;durP2;ratioP2
71317;SDS011;59106;44.706;18.310;2024-02-26T00:02:05;133.70;;;61.25;;
71317;SDS011;59106;44.706;18.310;2024-02-26T00:04:32;156.67;;;72.23;;
71317;SDS011;59106;44.706;18.310;2024-02-26T00:06:58;155.10;;;74.22;;
71317;SDS011;59106;44.706;18.310;2024-02-26T00:09:24;164.07;;;76.28;;
71317;SDS011;59106;44.706;18.310;2024-02-26T00:11:50;161.98;;;76.13;;
71317;SDS011;59106;44.706;18.310;2024-02-26T00:14:15;158.90;;;74.53;;
71317;SDS011;59106;44.706;18.310;2024-02-26T00:16:42;156.65;;;74.32;;
71317;SDS011;59106;44.706;18.310;2024-02-26T00:19:07;160.60;;;78.22;;
71317;SDS011;59106;44.706;18.310;2024-02-26T00:21:33;162.10;;;78.80;;
71317;SDS011;59106;44.706;18.310;2024-02-26T00:23:59;157.77;;;73.25;;
71317;SDS011;59106;44.706;18.310;2024-02-26T00:26:25;142.80;;;65.75;;
71317;SDS011;59106;44.706;18.310;2024-02-26T00:28:51;149.30;;;68.60;;
71317;SDS011;59106;44.706;18.310;2024-02-26T00:31:17;145.93;;;66.63;;
71317;SDS011;59106;44.706;18.310;2024-02-26T00:33:43;151.23;;;69.90;;
71317;SDS011;59106;44.706;18.310;2024-02-26T00:36:09;146.13;;;65.80;;
71317;SDS011;59106;44.706;18.310;2024-02-26T00:38:35;159.20;;;65.13;;
71317;SDS011;59106;44.706;18.310;2024-02-26T00:41:01;135.88;;;56.17;;
71317;SDS011;59106;44.706;18.310;2024-02-26T00:43:27;143.40;;;57.83;;
71317;SDS011;59106;44.706;18.310;2024-02-26T00:45:53;140.30;;;56.20;;
71317;SDS011;59106;44.706;18.310;2024-02-26T00:48:19;161.93;;;61.70;;
71317;SDS011;59106;44.706;18.310;2024-02-26T00:50:45;151.07;;;59.17;;
71317;SDS011;59106;44.706;18.310;2024-02-26T00:53:10;159.00;;;60.28;;
71317;SDS011;59106;44.706;18.310;2024-02-26T00:55:37;162.50;;;62.15;;
71317;SDS011;59106;44.706;18.310;2024-02-26T00:58:03;159.95;;;58.95;;
71317;SDS011;59106;44.706;18.310;2024-02-26T01:00:29;160.85;;;62.58;;
71317;SDS011;59106;44.706;18.310;2024-02-26T01:02:54;161.83;;;61.37;;
71317;SDS011;59106;44.706;18.310;2024-02-26T01:05:21;161.20;;;60.87;;
71317;SDS011;59106;44.706;18.310;2024-02-26T01:07:47;161.50;;;62.08;;
71317;SDS011;59106;44.706;18.310;2024-02-26T01:10:13;179.73;;;65.97;;
71317;SDS011;59106;44.706;18.310;2024-02-26T01:12:39;174.52;;;63.25;;
71317;SDS011;59106;44.706;18.310;2024-02-26T01:15:05;171.75;;;66.43;;
71317;SDS011;59106;44.706;18.310;2024-02-26T01:17:31;163.50;;;64.17;;
71317;SDS011;59106;44.706;18.310;2024-02-26T01:19:57;161.03;;;64.20;;
71317;SDS011;59106;44.706;18.310;2024-02-26T01:22:23;153.45;;;62.38;;
71317;SDS011;59106;44.706;18.310;2024-02-26T01:24:49;161.43;;;64.95;;
71317;SDS011;59106;44.706;18.310;2024-02-26T01:27:15;177.43;;;66.85;;
71317;SDS011;59106;44.706;18.310;2024-02-26T01:29:42;186.65;;;67.30;;
71317;SDS011;59106;44.706;18.310;2024-02-26T01:32:08;176.35;;;65.10;;
71317;SDS011;59106;44.706;18.310;2024-02-26T01:34:34;208.18;;;68.43;;
71317;SDS011;59106;44.706;18.310;2024-02-26T01:37:00;224.13;;;73.43;;
71317;SDS011;59106;44.706;18.310;2024-02-26T01:39:27;213.43;;;73.95;;
71317;SDS011;59106;44.706;18.310;2024-02-26T01:41:54;202.13;;;71.63;;
71317;SDS011;59106;44.706;18.310;2024-02-26T01:44:21;189.43;;;68.60;;
71317;SDS011;59106;44.706;18.310;2024-02-26T01:46:46;192.20;;;67.43;;
71317;SDS011;59106;44.706;18.310;2024-02-26T01:49:13;183.40;;;65.55;;
71317;SDS011;59106;44.706;18.310;2024-02-26T01:51:40;190.77;;;66.20;;
71317;SDS011;59106;44.706;18.310;2024-02-26T01:54:07;196.73;;;69.18;;
71317;SDS011;59106;44.706;18.310;2024-02-26T01:56:33;189.85;;;66.20;;
71317;SDS011;59106;44.706;18.310;2024-02-26T01:59:01;189.23;;;66.85;;
71317;SDS011;59106;44.706;18.310;2024-02-26T02:01:27;189.48;;;65.13;;
71317;SDS011;59106;44.706;18.310;2024-02-26T02:03:58;196.47;;;66.57;;
71317;SDS011;59106;44.706;18.310;2024-02-26T02:06:25;223.82;;;73.35;;
71317;SDS011;59106;44.706;18.310;2024-02-26T02:12:13;240.27;;;74.07;;
71317;SDS011;59106;44.706;18.310;2024-02-26T02:14:39;238.25;;;74.78;;
71317;SDS011;59106;44.706;18.310;2024-02-26T02:17:05;229.15;;;69.30;;
71317;SDS011;59106;44.706;18.310;2024-02-26T02:19:31;208.15;;;66.78;;
71317;SDS011;59106;44.706;18.310;2024-02-26T02:21:56;211.27;;;66.43;;
71317;SDS011;59106;44.706;18.310;2024-02-26T02:24:22;191.35;;;62.60;;
71317;SDS011;59106;44.706;18.310;2024-02-26T02:26:48;203.10;;;61.27;;
71317;SDS011;59106;44.706;18.310;2024-02-26T02:29:14;238.88;;;66.47;;
71317;SDS011;59106;44.706;18.310;2024-02-26T02:31:40;225.82;;;66.57;;
71317;SDS011;59106;44.706;18.310;2024-02-26T02:34:08;220.45;;;68.10;;
71317;SDS011;59106;44.706;18.310;2024-02-26T02:36:34;220.30;;;65.63;;
71317;SDS011;59106;44.706;18.310;2024-02-26T02:39:00;251.67;;;67.87;;
71317;SDS011;59106;44.706;18.310;2024-02-26T02:41:27;264.67;;;73.33;;
71317;SDS011;59106;44.706;18.310;2024-02-26T02:43:55;250.18;;;74.10;;
71317;SDS011;59106;44.706;18.310;2024-02-26T02:46:21;211.75;;;66.90;;
71317;SDS011;59106;44.706;18.310;2024-02-26T02:48:47;171.68;;;55.92;;
71317;SDS011;59106;44.706;18.310;2024-02-26T02:51:13;147.13;;;50.40;;
71317;SDS011;59106;44.706;18.310;2024-02-26T02:53:39;159.68;;;52.10;;
71317;SDS011;59106;44.706;18.310;2024-02-26T02:56:04;165.23;;;51.20;;
71317;SDS011;59106;44.706;18.310;2024-02-26T02:58:31;172.98;;;53.08;;
71317;SDS011;59106;44.706;18.310;2024-02-26T03:00:56;191.02;;;53.60;;
71317;SDS011;59106;44.706;18.310;2024-02-26T03:03:22;169.95;;;52.42;;
71317;SDS011;59106;44.706;18.310;2024-02-26T03:05:49;163.70;;;51.95;;
71317;SDS011;59106;44.706;18.310;2024-02-26T03:08:16;182.13;;;53.20;;
71317;SDS011;59106;44.706;18.310;2024-02-26T03:10:41;249.75;;;61.17;;
71317;SDS011;59106;44.706;18.310;2024-02-26T03:13:09;254.95;;;63.65;;
71317;SDS011;59106;44.706;18.310;2024-02-26T03:15:35;309.33;;;63.00;;
71317;SDS011;59106;44.706;18.310;2024-02-26T03:18:01;162.55;;;54.72;;
71317;SDS011;59106;44.706;18.310;2024-02-26T03:20:26;235.63;;;57.47;;
71317;SDS011;59106;44.706;18.310;2024-02-26T03:22:52;162.30;;;54.10;;
71317;SDS011;59106;44.706;18.310;2024-02-26T03:25:18;160.77;;;54.13;;
71317;SDS011;59106;44.706;18.310;2024-02-26T03:27:44;157.73;;;55.00;;
71317;SDS011;59106;44.706;18.310;2024-02-26T03:30:10;153.82;;;55.05;;
71317;SDS011;59106;44.706;18.310;2024-02-26T03:32:36;139.18;;;53.33;;
71317;SDS011;59106;44.706;18.310;2024-02-26T03:35:02;138.27;;;53.70;;
71317;SDS011;59106;44.706;18.310;2024-02-26T03:37:28;137.98;;;53.83;;
71317;SDS011;59106;44.706;18.310;2024-02-26T03:39:53;135.40;;;53.30;;
71317;SDS011;59106;44.706;18.310;2024-02-26T03:42:20;161.98;;;57.15;;
71317;SDS011;59106;44.706;18.310;2024-02-26T03:44:45;158.10;;;51.23;;
71317;SDS011;59106;44.706;18.310;2024-02-26T03:47:11;171.00;;;59.33;;
71317;SDS011;59106;44.706;18.310;2024-02-26T03:49:37;106.47;;;40.37;;
71317;SDS011;59106;44.706;18.310;2024-02-26T03:52:03;105.90;;;39.35;;
71317;SDS011;59106;44.706;18.310;2024-02-26T03:54:29;112.15;;;41.10;;
71317;SDS011;59106;44.706;18.310;2024-02-26T03:56:55;119.38;;;42.08;;
71317;SDS011;59106;44.706;18.310;2024-02-26T03:59:21;120.60;;;44.30;;
71317;SDS011;59106;44.706;18.310;2024-02-26T04:01:49;165.60;;;53.30;;
71317;SDS011;59106;44.706;18.310;2024-02-26T04:04:15;201.23;;;60.38;;
71317;SDS011;59106;44.706;18.310;2024-02-26T04:06:44;196.45;;;62.92;;
71317;SDS011;59106;44.706;18.310;2024-02-26T04:09:11;172.60;;;61.00;;
71317;SDS011;59106;44.706;18.310;2024-02-26T04:11:37;164.75;;;59.78;;
71317;SDS011;59106;44.706;18.310;2024-02-26T04:14:03;170.60;;;60.00;;
71317;SDS011;59106;44.706;18.310;2024-02-26T04:16:29;160.70;;;55.97;;
71317;SDS011;59106;44.706;18.310;2024-02-26T04:18:55;179.52;;;70.47;;
71317;SDS011;59106;44.706;18.310;2024-02-26T04:21:21;142.47;;;57.70;;
71317;SDS011;59106;44.706;18.310;2024-02-26T04:23:46;126.30;;;49.83;;
71317;SDS011;59106;44.706;18.310;2024-02-26T04:26:14;117.95;;;47.97;;
71317;SDS011;59106;44.706;18.310;2024-02-26T04:28:41;150.18;;;53.70;;
71317;SDS011;59106;44.706;18.310;2024-02-26T04:31:07;150.53;;;53.50;;
71317;SDS011;59106;44.706;18.310;2024-02-26T04:33:35;127.65;;;50.22;;
71317;SDS011;59106;44.706;18.310;2024-02-26T04:36:01;130.47;;;50.30;;
71317;SDS011;59106;44.706;18.310;2024-02-26T04:38:28;135.20;;;50.90;;
71317;SDS011;59106;44.706;18.310;2024-02-26T04:40:54;150.60;;;54.13;;
71317;SDS011;59106;44.706;18.310;2024-02-26T04:43:20;145.57;;;52.27;;
71317;SDS011;59106;44.706;18.310;2024-02-26T04:45:46;140.27;;;52.17;;
71317;SDS011;59106;44.706;18.310;2024-02-26T04:48:12;142.32;;;54.22;;
71317;SDS011;59106;44.706;18.310;2024-02-26T04:50:38;141.48;;;54.55;;
71317;SDS011;59106;44.706;18.310;2024-02-26T04:53:03;155.37;;;56.60;;
71317;SDS011;59106;44.706;18.310;2024-02-26T04:55:30;144.20;;;56.10;;
71317;SDS011;59106;44.706;18.310;2024-02-26T04:57:55;137.63;;;51.57;;
71317;SDS011;59106;44.706;18.310;2024-02-26T05:00:21;139.75;;;51.42;;
71317;SDS011;59106;44.706;18.310;2024-02-26T05:02:47;134.38;;;52.00;;
71317;SDS011;59106;44.706;18.310;2024-02-26T05:05:13;133.10;;;52.87;;
71317;SDS011;59106;44.706;18.310;2024-02-26T05:07:39;134.60;;;50.20;;
71317;SDS011;59106;44.706;18.310;2024-02-26T05:10:05;136.83;;;52.13;;
71317;SDS011;59106;44.706;18.310;2024-02-26T05:12:31;133.25;;;49.85;;
71317;SDS011;59106;44.706;18.310;2024-02-26T05:14:59;135.13;;;49.95;;
71317;SDS011;59106;44.706;18.310;2024-02-26T05:17:25;132.35;;;48.80;;
71317;SDS011;59106;44.706;18.310;2024-02-26T05:19:51;127.37;;;48.13;;
71317;SDS011;59106;44.706;18.310;2024-02-26T05:22:17;134.13;;;48.70;;
71317;SDS011;59106;44.706;18.310;2024-02-26T05:24:43;129.32;;;50.92;;
71317;SDS011;59106;44.706;18.310;2024-02-26T05:27:09;129.50;;;50.42;;
71317;SDS011;59106;44.706;18.310;2024-02-26T05:29:35;129.45;;;51.83;;
71317;SDS011;59106;44.706;18.310;2024-02-26T05:32:01;127.33;;;49.90;;
71317;SDS011;59106;44.706;18.310;2024-02-26T05:34:27;185.90;;;71.38;;
71317;SDS011;59106;44.706;18.310;2024-02-26T05:36:55;212.50;;;71.72;;
71317;SDS011;59106;44.706;18.310;2024-02-26T05:39:21;230.02;;;78.78;;
71317;SDS011;59106;44.706;18.310;2024-02-26T05:41:47;250.83;;;78.97;;
71317;SDS011;59106;44.706;18.310;2024-02-26T05:44:13;327.20;;;96.18;;
71317;SDS011;59106;44.706;18.310;2024-02-26T05:46:40;336.23;;;100.23;;
71317;SDS011;59106;44.706;18.310;2024-02-26T05:49:06;360.17;;;100.93;;
71317;SDS011;59106;44.706;18.310;2024-02-26T05:51:32;374.48;;;101.30;;
71317;SDS011;59106;44.706;18.310;2024-02-26T05:53:58;331.87;;;95.10;;
71317;SDS011;59106;44.706;18.310;2024-02-26T05:56:24;332.20;;;94.53;;
71317;SDS011;59106;44.706;18.310;2024-02-26T05:58:50;354.35;;;97.57;;
71317;SDS011;59106;44.706;18.310;2024-02-26T06:01:17;323.00;;;95.07;;
71317;SDS011;59106;44.706;18.310;2024-02-26T06:03:43;351.98;;;92.55;;
71317;SDS011;59106;44.706;18.310;2024-02-26T06:06:10;385.27;;;99.65;;
71317;SDS011;59106;44.706;18.310;2024-02-26T06:08:36;395.13;;;97.63;;
71317;SDS011;59106;44.706;18.310;2024-02-26T06:11:08;339.90;;;93.67;;
71317;SDS011;59106;44.706;18.310;2024-02-26T06:13:34;328.23;;;91.57;;
71317;SDS011;59106;44.706;18.310;2024-02-26T06:16:00;362.90;;;90.40;;
71317;SDS011;59106;44.706;18.310;2024-02-26T06:18:27;332.48;;;87.95;;
71317;SDS011;59106;44.706;18.310;2024-02-26T06:20:53;312.93;;;88.10;;
71317;SDS011;59106;44.706;18.310;2024-02-26T06:23:19;326.58;;;87.43;;
71317;SDS011;59106;44.706;18.310;2024-02-26T06:25:44;334.08;;;88.10;;
71317;SDS011;59106;44.706;18.310;2024-02-26T06:28:11;440.27;;;91.55;;
71317;SDS011;59106;44.706;18.310;2024-02-26T06:30:37;403.52;;;90.03;;
71317;SDS011;59106;44.706;18.310;2024-02-26T06:33:03;432.67;;;90.73;;
71317;SDS011;59106;44.706;18.310;2024-02-26T06:35:29;442.55;;;91.90;;
71317;SDS011;59106;44.706;18.310;2024-02-26T06:37:55;435.85;;;89.43;;
71317;SDS011;59106;44.706;18.310;2024-02-26T06:40:21;357.30;;;82.85;;
71317;SDS011;59106;44.706;18.310;2024-02-26T06:42:47;273.73;;;78.85;;
71317;SDS011;59106;44.706;18.310;2024-02-26T06:45:13;323.13;;;85.93;;
71317;SDS011;59106;44.706;18.310;2024-02-26T06:47:39;303.88;;;96.72;;
71317;SDS011;59106;44.706;18.310;2024-02-26T06:50:05;282.70;;;88.53;;
71317;SDS011;59106;44.706;18.310;2024-02-26T06:52:31;238.07;;;77.32;;
71317;SDS011;59106;44.706;18.310;2024-02-26T06:54:57;251.57;;;79.20;;
71317;SDS011;59106;44.706;18.310;2024-02-26T06:57:23;302.05;;;91.97;;
71317;SDS011;59106;44.706;18.310;2024-02-26T06:59:49;336.70;;;104.47;;
71317;SDS011;59106;44.706;18.310;2024-02-26T07:02:15;284.90;;;91.33;;
71317;SDS011;59106;44.706;18.310;2024-02-26T07:04:42;292.17;;;92.17;;
71317;SDS011;59106;44.706;18.310;2024-02-26T07:07:08;270.73;;;88.30;;
71317;SDS011;59106;44.706;18.310;2024-02-26T07:09:34;282.37;;;94.23;;
71317;SDS011;59106;44.706;18.310;2024-02-26T07:12:00;349.70;;;90.18;;
71317;SDS011;59106;44.706;18.310;2024-02-26T07:14:26;322.35;;;93.15;;
71317;SDS011;59106;44.706;18.310;2024-02-26T07:16:52;315.60;;;86.88;;
71317;SDS011;59106;44.706;18.310;2024-02-26T07:19:18;328.93;;;89.67;;
71317;SDS011;59106;44.706;18.310;2024-02-26T07:21:44;249.93;;;76.20;;
71317;SDS011;59106;44.706;18.310;2024-02-26T07:24:09;256.30;;;79.13;;
71317;SDS011;59106;44.706;18.310;2024-02-26T07:26:35;248.10;;;80.47;;
71317;SDS011;59106;44.706;18.310;2024-02-26T07:29:01;233.40;;;75.90;;
71317;SDS011;59106;44.706;18.310;2024-02-26T07:31:27;275.33;;;74.95;;
71317;SDS011;59106;44.706;18.310;2024-02-26T07:33:53;270.50;;;81.18;;
71317;SDS011;59106;44.706;18.310;2024-02-26T07:36:19;291.60;;;84.73;;
71317;SDS011;59106;44.706;18.310;2024-02-26T07:38:45;350.15;;;89.22;;
71317;SDS011;59106;44.706;18.310;2024-02-26T07:41:11;265.92;;;85.60;;
71317;SDS011;59106;44.706;18.310;2024-02-26T07:43:37;300.40;;;86.43;;
71317;SDS011;59106;44.706;18.310;2024-02-26T07:46:03;272.92;;;82.72;;
71317;SDS011;59106;44.706;18.310;2024-02-26T07:48:29;277.53;;;84.23;;
71317;SDS011;59106;44.706;18.310;2024-02-26T07:50:55;250.68;;;83.70;;
71317;SDS011;59106;44.706;18.310;2024-02-26T07:53:20;281.40;;;83.73;;
71317;SDS011;59106;44.706;18.310;2024-02-26T07:55:47;304.30;;;92.10;;
71317;SDS011;59106;44.706;18.310;2024-02-26T07:58:12;303.88;;;94.38;;
71317;SDS011;59106;44.706;18.310;2024-02-26T08:00:38;252.30;;;84.47;;
71317;SDS011;59106;44.706;18.310;2024-02-26T08:03:04;361.73;;;160.53;;
71317;SDS011;59106;44.706;18.310;2024-02-26T08:05:30;217.03;;;80.27;;
71317;SDS011;59106;44.706;18.310;2024-02-26T08:07:56;213.93;;;81.10;;
71317;SDS011;59106;44.706;18.310;2024-02-26T08:10:22;221.68;;;83.15;;
71317;SDS011;59106;44.706;18.310;2024-02-26T08:12:48;249.17;;;83.93;;
71317;SDS011;59106;44.706;18.310;2024-02-26T08:15:14;217.47;;;81.00;;
71317;SDS011;59106;44.706;18.310;2024-02-26T08:17:40;216.25;;;82.35;;
71317;SDS011;59106;44.706;18.310;2024-02-26T08:20:06;237.57;;;84.88;;
71317;SDS011;59106;44.706;18.310;2024-02-26T08:22:32;226.77;;;86.80;;
71317;SDS011;59106;44.706;18.310;2024-02-26T08:24:58;224.00;;;87.60;;
71317;SDS011;59106;44.706;18.310;2024-02-26T08:27:24;215.00;;;83.60;;
71317;SDS011;59106;44.706;18.310;2024-02-26T08:29:51;214.00;;;83.93;;
71317;SDS011;59106;44.706;18.310;2024-02-26T08:32:16;214.73;;;86.67;;
71317;SDS011;59106;44.706;18.310;2024-02-26T08:34:42;228.40;;;95.85;;
71317;SDS011;59106;44.706;18.310;2024-02-26T08:37:08;217.73;;;92.18;;
71317;SDS011;59106;44.706;18.310;2024-02-26T08:39:34;225.38;;;98.22;;
71317;SDS011;59106;44.706;18.310;2024-02-26T08:42:00;219.50;;;95.33;;
71317;SDS011;59106;44.706;18.310;2024-02-26T08:44:26;230.80;;;99.97;;
71317;SDS011;59106;44.706;18.310;2024-02-26T08:46:52;232.52;;;102.63;;
71317;SDS011;59106;44.706;18.310;2024-02-26T08:49:18;248.43;;;116.45;;
71317;SDS011;59106;44.706;18.310;2024-02-26T08:51:44;261.87;;;124.90;;
71317;SDS011;59106;44.706;18.310;2024-02-26T08:54:11;237.65;;;112.25;;
71317;SDS011;59106;44.706;18.310;2024-02-26T08:56:37;225.90;;;106.78;;
71317;SDS011;59106;44.706;18.310;2024-02-26T08:59:03;225.25;;;102.15;;
71317;SDS011;59106;44.706;18.310;2024-02-26T09:01:29;203.25;;;92.78;;
71317;SDS011;59106;44.706;18.310;2024-02-26T09:03:55;196.85;;;87.00;;
71317;SDS011;59106;44.706;18.310;2024-02-26T09:06:21;261.58;;;133.55;;
71317;SDS011;59106;44.706;18.310;2024-02-26T09:08:47;190.23;;;81.20;;
71317;SDS011;59106;44.706;18.310;2024-02-26T09:11:13;171.27;;;70.30;;
71317;SDS011;59106;44.706;18.310;2024-02-26T09:13:39;185.00;;;73.53;;
71317;SDS011;59106;44.706;18.310;2024-02-26T09:16:05;189.15;;;79.25;;
71317;SDS011;59106;44.706;18.310;2024-02-26T09:18:31;192.68;;;77.15;;
71317;SDS011;59106;44.706;18.310;2024-02-26T09:20:57;183.65;;;73.50;;
71317;SDS011;59106;44.706;18.310;2024-02-26T09:23:24;191.77;;;74.13;;
71317;SDS011;59106;44.706;18.310;2024-02-26T09:25:50;188.32;;;75.55;;
71317;SDS011;59106;44.706;18.310;2024-02-26T09:28:16;190.85;;;75.88;;
71317;SDS011;59106;44.706;18.310;2024-02-26T09:30:44;178.57;;;70.10;;
71317;SDS011;59106;44.706;18.310;2024-02-26T09:33:11;178.23;;;70.05;;
71317;SDS011;59106;44.706;18.310;2024-02-26T09:35:41;167.50;;;67.10;;
71317;SDS011;59106;44.706;18.310;2024-02-26T09:38:07;170.80;;;64.50;;
71317;SDS011;59106;44.706;18.310;2024-02-26T09:40:34;164.40;;;64.95;;
71317;SDS011;59106;44.706;18.310;2024-02-26T09:43:00;162.57;;;62.97;;
71317;SDS011;59106;44.706;18.310;2024-02-26T09:45:29;149.68;;;60.10;;
71317;SDS011;59106;44.706;18.310;2024-02-26T09:47:57;153.03;;;59.43;;
71317;SDS011;59106;44.706;18.310;2024-02-26T09:50:23;147.97;;;58.03;;
71317;SDS011;59106;44.706;18.310;2024-02-26T09:52:49;127.57;;;53.17;;
71317;SDS011;59106;44.706;18.310;2024-02-26T09:55:16;156.90;;;71.47;;
71317;SDS011;59106;44.706;18.310;2024-02-26T09:57:44;202.20;;;107.67;;
71317;SDS011;59106;44.706;18.310;2024-02-26T10:00:10;128.35;;;52.60;;
71317;SDS011;59106;44.706;18.310;2024-02-26T10:02:37;120.50;;;53.33;;
71317;SDS011;59106;44.706;18.310;2024-02-26T10:05:04;119.38;;;50.90;;
71317;SDS011;59106;44.706;18.310;2024-02-26T10:07:31;116.10;;;49.72;;
71317;SDS011;59106;44.706;18.310;2024-02-26T10:09:57;107.37;;;44.70;;
71317;SDS011;59106;44.706;18.310;2024-02-26T10:12:23;98.72;;;42.38;;
71317;SDS011;59106;44.706;18.310;2024-02-26T10:14:51;104.25;;;41.72;;
71317;SDS011;59106;44.706;18.310;2024-02-26T10:17:17;79.57;;;34.67;;
71317;SDS011;59106;44.706;18.310;2024-02-26T10:19:44;62.25;;;29.15;;
71317;SDS011;59106;44.706;18.310;2024-02-26T10:22:10;44.88;;;20.48;;
71317;SDS011;59106;44.706;18.310;2024-02-26T10:24:36;48.10;;;21.40;;
71317;SDS011;59106;44.706;18.310;2024-02-26T10:27:02;48.05;;;22.48;;
71317;SDS011;59106;44.706;18.310;2024-02-26T10:29:29;58.28;;;23.90;;
71317;SDS011;59106;44.706;18.310;2024-02-26T10:31:55;45.10;;;20.60;;
71317;SDS011;59106;44.706;18.310;2024-02-26T10:34:21;44.57;;;20.47;;
71317;SDS011;59106;44.706;18.310;2024-02-26T10:36:48;48.35;;;21.83;;
71317;SDS011;59106;44.706;18.310;2024-02-26T10:39:14;46.67;;;21.17;;
71317;SDS011;59106;44.706;18.310;2024-02-26T10:41:42;49.60;;;21.87;;
71317;SDS011;59106;44.706;18.310;2024-02-26T10:44:09;46.60;;;20.23;;
71317;SDS011;59106;44.706;18.310;2024-02-26T10:46:36;43.00;;;20.80;;
71317;SDS011;59106;44.706;18.310;2024-02-26T10:49:02;35.40;;;15.93;;
71317;SDS011;59106;44.706;18.310;2024-02-26T10:51:29;36.15;;;17.05;;
71317;SDS011;59106;44.706;18.310;2024-02-26T10:53:55;33.22;;;16.55;;
71317;SDS011;59106;44.706;18.310;2024-02-26T10:56:28;32.33;;;15.63;;
71317;SDS011;59106;44.706;18.310;2024-02-26T10:58:54;30.08;;;14.20;;
71317;SDS011;59106;44.706;18.310;2024-02-26T11:01:21;29.75;;;12.18;;
71317;SDS011;59106;44.706;18.310;2024-02-26T11:03:48;27.42;;;14.57;;
71317;SDS011;59106;44.706;18.310;2024-02-26T11:06:16;28.30;;;13.65;;
71317;SDS011;59106;44.706;18.310;2024-02-26T11:08:42;28.83;;;12.77;;
71317;SDS011;59106;44.706;18.310;2024-02-26T11:11:09;30.80;;;13.23;;
71317;SDS011;59106;44.706;18.310;2024-02-26T11:13:38;73.47;;;46.58;;
71317;SDS011;59106;44.706;18.310;2024-02-26T11:16:05;24.17;;;11.40;;
71317;SDS011;59106;44.706;18.310;2024-02-26T11:18:32;24.85;;;11.65;;
71317;SDS011;59106;44.706;18.310;2024-02-26T11:20:59;30.95;;;16.00;;
71317;SDS011;59106;44.706;18.310;2024-02-26T11:23:26;24.27;;;10.55;;
71317;SDS011;59106;44.706;18.310;2024-02-26T11:25:52;20.25;;;9.68;;
71317;SDS011;59106;44.706;18.310;2024-02-26T11:28:18;16.55;;;7.40;;
71317;SDS011;59106;44.706;18.310;2024-02-26T11:30:46;20.42;;;8.88;;
71317;SDS011;59106;44.706;18.310;2024-02-26T11:33:13;16.75;;;7.78;;
71317;SDS011;59106;44.706;18.310;2024-02-26T11:35:39;19.67;;;8.73;;
71317;SDS011;59106;44.706;18.310;2024-02-26T11:38:05;14.50;;;6.97;;
71317;SDS011;59106;44.706;18.310;2024-02-26T11:40:33;17.27;;;8.00;;
71317;SDS011;59106;44.706;18.310;2024-02-26T11:43:05;14.10;;;6.18;;
71317;SDS011;59106;44.706;18.310;2024-02-26T11:50:41;18.08;;;8.50;;
71317;SDS011;59106;44.706;18.310;2024-02-26T11:56:11;24.17;;;7.20;;
71317;SDS011;59106;44.706;18.310;2024-02-26T11:58:34;26.52;;;7.53;;
71317;SDS011;59106;44.706;18.310;2024-02-26T12:01:03;18.05;;;7.28;;
71317;SDS011;59106;44.706;18.310;2024-02-26T12:03:29;23.00;;;9.30;;
71317;SDS011;59106;44.706;18.310;2024-02-26T12:05:55;15.30;;;6.47;;
71317;SDS011;59106;44.706;18.310;2024-02-26T12:08:21;16.52;;;6.88;;
71317;SDS011;59106;44.706;18.310;2024-02-26T12:10:49;18.20;;;7.70;;
71317;SDS011;59106;44.706;18.310;2024-02-26T12:13:16;22.13;;;9.70;;
71317;SDS011;59106;44.706;18.310;2024-02-26T12:15:46;14.93;;;6.55;;
71317;SDS011;59106;44.706;18.310;2024-02-26T12:18:20;17.20;;;7.15;;
71317;SDS011;59106;44.706;18.310;2024-02-26T12:20:47;15.20;;;7.05;;
71317;SDS011;59106;44.706;18.310;2024-02-26T12:23:16;16.50;;;6.83;;
71317;SDS011;59106;44.706;18.310;2024-02-26T12:25:43;22.25;;;8.90;;
71317;SDS011;59106;44.706;18.310;2024-02-26T12:28:09;17.73;;;8.07;;
71317;SDS011;59106;44.706;18.310;2024-02-26T12:30:35;19.80;;;10.68;;
71317;SDS011;59106;44.706;18.310;2024-02-26T12:33:01;14.23;;;6.78;;
71317;SDS011;59106;44.706;18.310;2024-02-26T12:35:28;13.10;;;6.50;;
71317;SDS011;59106;44.706;18.310;2024-02-26T12:37:56;17.55;;;7.85;;
71317;SDS011;59106;44.706;18.310;2024-02-26T12:40:22;15.07;;;7.50;;
71317;SDS011;59106;44.706;18.310;2024-02-26T12:42:48;19.05;;;7.82;;
71317;SDS011;59106;44.706;18.310;2024-02-26T12:45:15;15.38;;;8.13;;
71317;SDS011;59106;44.706;18.310;2024-02-26T12:47:42;16.52;;;7.50;;
71317;SDS011;59106;44.706;18.310;2024-02-26T12:50:09;43.72;;;12.55;;
71317;SDS011;59106;44.706;18.310;2024-02-26T12:52:37;21.30;;;6.22;;
71317;SDS011;59106;44.706;18.310;2024-02-26T12:55:05;20.45;;;6.72;;
71317;SDS011;59106;44.706;18.310;2024-02-26T12:57:37;12.07;;;5.13;;
71317;SDS011;59106;44.706;18.310;2024-02-26T13:00:07;12.82;;;4.75;;
71317;SDS011;59106;44.706;18.310;2024-02-26T13:02:35;13.20;;;5.25;;
71317;SDS011;59106;44.706;18.310;2024-02-26T13:05:03;16.93;;;5.37;;
71317;SDS011;59106;44.706;18.310;2024-02-26T13:07:29;16.85;;;5.60;;
71317;SDS011;59106;44.706;18.310;2024-02-26T13:09:55;15.95;;;5.63;;
71317;SDS011;59106;44.706;18.310;2024-02-26T13:12:21;13.50;;;5.10;;
71317;SDS011;59106;44.706;18.310;2024-02-26T13:14:47;19.65;;;9.90;;
71317;SDS011;59106;44.706;18.310;2024-02-26T13:17:13;14.15;;;7.10;;
71317;SDS011;59106;44.706;18.310;2024-02-26T13:19:48;14.60;;;6.80;;
71317;SDS011;59106;44.706;18.310;2024-02-26T13:22:14;11.60;;;5.50;;
71317;SDS011;59106;44.706;18.310;2024-02-26T13:24:40;15.35;;;8.55;;
71317;SDS011;59106;44.706;18.310;2024-02-26T13:27:06;14.35;;;6.63;;
71317;SDS011;59106;44.706;18.310;2024-02-26T13:29:32;14.55;;;6.50;;
71317;SDS011;59106;44.706;18.310;2024-02-26T13:31:58;16.40;;;7.37;;
71317;SDS011;59106;44.706;18.310;2024-02-26T13:34:25;14.40;;;6.00;;
71317;SDS011;59106;44.706;18.310;2024-02-26T13:36:52;12.50;;;5.53;;
71317;SDS011;59106;44.706;18.310;2024-02-26T13:39:22;10.93;;;5.03;;
71317;SDS011;59106;44.706;18.310;2024-02-26T13:41:48;13.43;;;6.50;;
71317;SDS011;59106;44.706;18.310;2024-02-26T13:44:14;16.00;;;6.13;;
71317;SDS011;59106;44.706;18.310;2024-02-26T13:46:40;13.57;;;7.10;;
71317;SDS011;59106;44.706;18.310;2024-02-26T13:49:08;15.73;;;6.50;;
71317;SDS011;59106;44.706;18.310;2024-02-26T13:51:33;11.45;;;5.32;;
71317;SDS011;59106;44.706;18.310;2024-02-26T13:54:01;12.57;;;5.70;;
71317;SDS011;59106;44.706;18.310;2024-02-26T13:56:27;13.70;;;6.53;;
71317;SDS011;59106;44.706;18.310;2024-02-26T13:58:53;13.27;;;5.40;;
71317;SDS011;59106;44.706;18.310;2024-02-26T14:01:19;20.63;;;9.97;;
71317;SDS011;59106;44.706;18.310;2024-02-26T14:03:45;23.58;;;11.65;;
71317;SDS011;59106;44.706;18.310;2024-02-26T14:06:11;22.95;;;11.00;;
71317;SDS011;59106;44.706;18.310;2024-02-26T14:08:37;23.60;;;11.32;;